AGROMETEOROLOŠKI PORTAL
Vinorodna pokrajina

Temelj dobrega kmetovanja.

Pregled podatkov za lokacijo BOHINJSKA ČEŠNJICA - ARSO, meteorološka postaja 153

Pregled senzorjev na lokaciji

ID Ime Zadnja
vrednost
Datum in čas
meritve
(lokalni čas)
Tip
senzorja
5931 Padavine (mm) 2,4 mm 16.4.2024 16:00 ARSO
5933 Relativna zračna vlaga (2 m) (% RH) 93 % RH 16.4.2024 16:00 ARSO
5932 Temperatura (2 m) (°C) 1,7 °C 16.4.2024 16:00 ARSO

Pregled podatkov zadnjih 24 ur

Zap.
št.
Datum in čas
(lokalni čas)
BOHINJSKA ČEŠNJICA - ARSO
Padavine Relativna
zračna
vlaga
(2
m)
Temperatura
(2
m)
1 16.4.2024 16:00 2,4 92,7 1,7
2 16.4.2024 15:30 3,8 89,3 2,4
3 16.4.2024 15:00 5,3 81,3 3,9
4 16.4.2024 14:30 1,1 70,7 6
5 16.4.2024 14:00 0 63,3 7,7
6 16.4.2024 13:30 0 72,7 10,8
7 16.4.2024 13:00 0,5 80,7 13,2
8 16.4.2024 12:30 0 76,3 13,8
9 16.4.2024 12:00 0 72,3 14
10 16.4.2024 11:30 0,1 68 14,4
11 16.4.2024 11:00 0 64,3 14,7
12 16.4.2024 10:30 0 62,7 14,7
13 16.4.2024 10:00 0 63,3 14,5
14 16.4.2024 09:30 0 61,7 14,5
15 16.4.2024 09:00 0 61 14,6
16 16.4.2024 08:30 0 59,3 14,8
17 16.4.2024 08:00 0 59 14,9
18 16.4.2024 07:30 0 60,3 14,8
19 16.4.2024 07:00 0 60,3 14,7
20 16.4.2024 06:30 0 57,3 14,8
21 16.4.2024 06:00 0 57,7 14,5
22 16.4.2024 05:30 0 55 14,6
23 16.4.2024 05:00 0 54,7 14,6
24 16.4.2024 04:30 0 54,3 14,7
25 16.4.2024 04:00 0 52,7 14,9
26 16.4.2024 03:30 0 52 15
27 16.4.2024 03:00 0 57 14,2
28 16.4.2024 02:30 0 57,7 14,1
29 16.4.2024 02:00 0 59 14,1
30 16.4.2024 01:30 0 56 14,8
31 16.4.2024 01:00 0 57 15
32 16.4.2024 00:30 0 58,3 15,1
33 16.4.2024 00:00 0 59 15,3
34 15.4.2024 23:30 0 56,3 16,1
35 15.4.2024 23:00 0 56 16,4
36 15.4.2024 22:30 0 56,3 16,3
37 15.4.2024 22:00 0 55,7 16,3
38 15.4.2024 21:30 0 57 15,5
39 15.4.2024 21:00 0 54,3 15,9
40 15.4.2024 20:30 0 50,3 16,6
41 15.4.2024 20:00 0 51 16,8
42 15.4.2024 19:30 0 50,3 17,2
43 15.4.2024 19:00 0 48,3 17,5
44 15.4.2024 18:30 0 48,7 18
45 15.4.2024 18:00 0 48,3 18,4